Lynchburg, Texas
Current Conditions -  °F | °C
As of 11:50 AM on Thursday 23 Oct 2014 (Local Time) from KEFD Reporting Station
Broken Clouds Broken Clouds  
Wind Chill: 73°   Ceiling: 21000
Heat Index: 73°   Visibility: 10mi
Dew Point: 59°   Wind: 3mph
Humidity: 61%   Direction: 30°NNE
Pressure: 30.14"   Gusts: NA
Location:  29.7803°N, 94.894°W
Report Text: KEFD 231650Z 03003KT 10SM SCT170 BKN210 23/15 A3014
Loading
Personal Weather Stations






























Interactive Weather Map
Tropical Storm Tracking
New forecast layout! Learn more

10-Day Weather Forecast

Advertisements
Track Severe Weather on mobile